Time;durP1;ratioP1;P1;durP2;ratioP2;P2;SDS_P1;SDS_P2;PMS_P1;PMS_P2;Temp;Humidity;BMP_temperature;BMP_pressure;BME280_temperature;BME280_humidity;BME280_pressure;Samples;Min_cycle;Max_cycle;Signal;HPM_P1;HPM_P2
2022/12/29 00:01:16;;;;;;;;;;;;;;;10.50;65.26;99804.47;5091840;28;19974;-55
2022/12/29 00:03:41;;;;;;;;;;;;;;;10.51;65.17;99803.56;5092523;28;19978;-54
2022/12/29 00:06:07;;;;;;;;;;;;;;;10.47;65.13;99803.72;5092393;28;19916;-53
2022/12/29 00:08:41;;;;;;;;;;;;;;;10.47;65.22;99795.84;5073730;28;19921;-50
2022/12/29 00:11:16;;;;;;;;;;;;;;;10.46;65.39;99794.13;5072773;28;19950;-52
2022/12/29 00:16:26;;;;;;;;;;;;;;;10.35;65.68;99802.31;5075066;28;19927;-50
2022/12/29 00:18:52;;;;;;;;;;;;;;;10.40;65.45;99791.66;5075519;28;20359;-50
2022/12/29 00:35:10;;;;;;;;;;;;;;;10.50;65.21;99783.47;5092696;28;20019;-49
2022/12/29 00:45:53;;;;;;;;;;;;;;;10.54;65.20;99781.63;5076704;28;19953;-51
2022/12/29 00:51:02;;;;;;;;;;;;;;;10.42;65.61;99776.75;5091294;28;19970;-48
2022/12/29 00:53:27;;;;;;;;;;;;;;;10.47;65.45;99780.94;5077040;28;19925;-55
2022/12/29 00:55:53;;;;;;;;;;;;;;;10.44;65.54;99774.91;5077217;28;19928;-49
2022/12/29 00:58:18;;;;;;;;;;;;;;;10.44;65.49;99773.13;5077305;28;19967;-53
2022/12/29 01:00:43;;;;;;;;;;;;;;;10.49;65.35;99766.00;5076577;28;19924;-51
2022/12/29 01:03:09;;;;;;;;;;;;;;;10.52;65.39;99768.50;5083432;28;20272;-52
2022/12/29 01:05:37;;;;;;;;;;;;;;;10.54;65.36;99761.47;5095621;28;19928;-53
2022/12/29 01:08:02;;;;;;;;;;;;;;;10.54;65.27;99766.72;5097855;28;20450;-52
2022/12/29 01:10:28;;;;;;;;;;;;;;;10.45;65.58;99759.13;5091388;28;20020;-51
2022/12/29 01:12:53;;;;;;;;;;;;;;;10.49;65.43;99767.75;5076962;28;19924;-53
2022/12/29 01:15:18;;;;;;;;;;;;;;;10.54;65.44;99771.09;5076917;28;19916;-50
2022/12/29 01:17:44;;;;;;;;;;;;;;;10.55;65.30;99768.41;5076856;28;19940;-54
2022/12/29 01:20:10;;;;;;;;;;;;;;;10.56;65.17;99762.25;5076838;28;19921;-52
2022/12/29 01:22:35;;;;;;;;;;;;;;;10.45;65.41;99751.25;5078722;28;19924;-52
2022/12/29 01:25:01;;;;;;;;;;;;;;;10.47;65.44;99744.16;5076853;28;19916;-51
2022/12/29 01:27:26;;;;;;;;;;;;;;;10.40;65.72;99734.75;5090736;28;19931;-53
2022/12/29 01:29:52;;;;;;;;;;;;;;;10.44;65.65;99735.50;5095637;28;19982;-51
2022/12/29 01:32:17;;;;;;;;;;;;;;;10.51;65.37;99730.03;5095121;28;20261;-54
2022/12/29 01:34:42;;;;;;;;;;;;;;;10.56;65.31;99729.88;5097243;28;19920;-50
2022/12/29 01:37:08;;;;;;;;;;;;;;;10.58;65.05;99728.94;5089908;28;19929;-54
2022/12/29 01:39:33;;;;;;;;;;;;;;;10.58;65.14;99733.31;5076021;28;19963;-54
2022/12/29 01:41:58;;;;;;;;;;;;;;;10.57;65.14;99735.09;5091094;28;19928;-53
2022/12/29 01:44:42;;;;;;;;;;;;;;;10.58;65.17;99735.94;5077672;28;19934;-52
2022/12/29 01:47:08;;;;;;;;;;;;;;;10.59;65.03;99742.91;5076352;28;19913;-51
2022/12/29 01:49:33;;;;;;;;;;;;;;;10.56;65.03;99743.00;5075916;28;19978;-52
2022/12/29 01:52:04;;;;;;;;;;;;;;;10.50;65.32;99738.81;5076427;28;20023;-52
2022/12/29 01:54:50;;;;;;;;;;;;;;;10.31;65.89;99742.91;5076405;28;19932;-51
2022/12/29 01:57:18;;;;;;;;;;;;;;;10.23;66.20;99745.75;5076279;28;20338;-53
2022/12/29 01:59:48;;;;;;;;;;;;;;;10.30;66.13;99741.22;5076288;28;20403;-53
2022/12/29 02:02:13;;;;;;;;;;;;;;;10.28;66.12;99737.75;5075776;28;20291;-50
2022/12/29 02:04:43;;;;;;;;;;;;;;;10.30;65.90;99739.44;5076213;28;19920;-50
2022/12/29 02:07:11;;;;;;;;;;;;;;;10.11;66.33;99741.72;5076251;28;20007;-52
2022/12/29 02:09:37;;;;;;;;;;;;;;;10.24;66.31;99741.34;5087783;28;19926;-50
2022/12/29 02:12:02;;;;;;;;;;;;;;;10.27;66.26;99741.28;5096561;28;20290;-49
2022/12/29 02:14:28;;;;;;;;;;;;;;;10.29;65.97;99740.34;5096420;28;19920;-49
2022/12/29 02:16:53;;;;;;;;;;;;;;;10.28;65.99;99737.75;5094444;28;20057;-49
2022/12/29 02:19:19;;;;;;;;;;;;;;;10.27;66.25;99738.66;5096164;28;20011;-50
2022/12/29 02:21:56;;;;;;;;;;;;;;;10.16;66.51;99746.81;5094575;28;19924;-55
2022/12/29 02:24:39;;;;;;;;;;;;;;;10.08;66.77;99722.56;5082883;28;19994;-53
2022/12/29 02:27:07;;;;;;;;;;;;;;;10.15;66.70;99723.25;5096107;28;20316;-52
2022/12/29 02:29:51;;;;;;;;;;;;;;;10.23;66.56;99727.38;5100903;28;20451;-53
2022/12/29 02:32:25;;;;;;;;;;;;;;;10.28;66.34;99714.97;5093642;28;19973;-53
2022/12/29 02:35:15;;;;;;;;;;;;;;;10.34;66.02;99711.31;5086027;28;19926;-54
2022/12/29 02:37:49;;;;;;;;;;;;;;;10.29;65.93;99690.47;5095649;28;19923;-50
2022/12/29 02:40:17;;;;;;;;;;;;;;;10.34;65.92;99713.94;5092321;28;19920;-52
2022/12/29 02:43:00;;;;;;;;;;;;;;;10.34;65.81;99703.44;5093511;28;19931;-52
2022/12/29 02:45:34;;;;;;;;;;;;;;;10.40;65.72;99694.50;5094341;28;19974;-52
2022/12/29 02:48:23;;;;;;;;;;;;;;;10.34;65.79;99683.28;5093938;28;19927;-52
2022/12/29 02:50:55;;;;;;;;;;;;;;;10.38;65.69;99686.69;5079369;28;19924;-52
2022/12/29 02:54:40;;;;;;;;;;;;;;;10.41;65.57;99678.69;5075309;28;19916;-53
2022/12/29 02:56:07;;;;;;;;;;;;;;;10.42;65.60;99683.06;5074862;28;19928;-52
2022/12/29 02:58:32;;;;;;;;;;;;;;;10.42;65.53;99688.31;5083031;28;20341;-51
2022/12/29 03:00:58;;;;;;;;;;;;;;;10.42;65.64;99693.56;5076598;28;19916;-52
2022/12/29 03:03:41;;;;;;;;;;;;;;;10.40;65.72;99687.47;5079807;28;20106;-51
2022/12/29 03:06:09;;;;;;;;;;;;;;;10.44;65.67;99686.47;5082902;28;19989;-52
2022/12/29 03:08:39;;;;;;;;;;;;;;;10.43;65.53;99674.25;5095218;28;19920;-52
2022/12/29 03:16:53;;;;;;;;;;;;;;;10.47;65.45;99667.13;5095316;28;20089;-51
2022/12/29 03:19:27;;;;;;;;;;;;;;;10.44;65.54;99662.84;5083692;28;19921;-52
2022/12/29 03:24:48;;;;;;;;;;;;;;;10.50;65.47;99661.78;5074855;28;19996;-53
2022/12/29 03:27:16;;;;;;;;;;;;;;;10.45;65.54;99667.19;5075057;28;19916;-51
2022/12/29 03:29:44;;;;;;;;;;;;;;;10.51;65.25;99663.50;5108344;28;19938;-54
2022/12/29 03:32:11;;;;;;;;;;;;;;;10.51;65.26;99666.97;5108826;28;20438;-53
2022/12/29 03:34:38;;;;;;;;;;;;;;;10.38;65.71;99672.69;5094623;28;19916;-54
2022/12/29 03:37:14;;;;;;;;;;;;;;;10.42;65.60;99672.53;5094498;28;19920;-51
2022/12/29 03:39:41;;;;;;;;;;;;;;;10.46;65.46;99682.03;5080650;28;20387;-51
2022/12/29 03:42:10;;;;;;;;;;;;;;;10.46;65.53;99668.06;5076649;28;19920;-53
2022/12/29 03:44:37;;;;;;;;;;;;;;;10.40;65.76;99669.09;5094455;28;19926;-52
2022/12/29 03:47:02;;;;;;;;;;;;;;;10.43;65.67;99673.41;5090524;28;20428;-52
2022/12/29 03:49:28;;;;;;;;;;;;;;;10.44;65.62;99659.34;5093326;28;19924;-54
2022/12/29 03:51:53;;;;;;;;;;;;;;;10.42;65.55;99658.56;5094545;28;19920;-50
2022/12/29 03:54:18;;;;;;;;;;;;;;;10.42;65.62;99655.94;5094381;28;19924;-53
2022/12/29 03:56:44;;;;;;;;;;;;;;;10.46;65.43;99645.28;5091932;28;20343;-52
2022/12/29 03:59:09;;;;;;;;;;;;;;;10.47;65.36;99639.09;5094243;28;19920;-50
2022/12/29 04:01:34;;;;;;;;;;;;;;;10.48;65.43;99639.97;5092014;28;19924;-50
2022/12/29 04:04:00;;;;;;;;;;;;;;;10.45;65.45;99638.31;5083512;28;19924;-50
2022/12/29 04:06:25;;;;;;;;;;;;;;;10.45;65.40;99630.44;5077698;28;19994;-50
2022/12/29 04:08:50;;;;;;;;;;;;;;;10.44;65.41;99639.19;5078940;28;19931;-50
2022/12/29 04:11:15;;;;;;;;;;;;;;;10.48;65.28;99637.31;5087877;28;20010;-49
2022/12/29 04:13:41;;;;;;;;;;;;;;;10.48;65.31;99629.44;5078104;28;20037;-48
2022/12/29 04:16:07;;;;;;;;;;;;;;;10.48;65.14;99638.19;5075753;28;20296;-49
2022/12/29 04:18:32;;;;;;;;;;;;;;;10.52;65.00;99636.31;5076763;28;19924;-50
2022/12/29 04:21:00;;;;;;;;;;;;;;;10.53;65.17;99630.16;5079037;28;19924;-54
2022/12/29 04:23:26;;;;;;;;;;;;;;;10.48;65.06;99621.56;5079990;28;19929;-50
2022/12/29 04:25:52;;;;;;;;;;;;;;;10.47;65.00;99625.97;5076578;28;19924;-50
2022/12/29 04:28:17;;;;;;;;;;;;;;;10.48;64.87;99625.06;5078486;28;19946;-53
2022/12/29 04:30:43;;;;;;;;;;;;;;;10.42;64.96;99613.91;5083689;28;19950;-52
2022/12/29 04:33:08;;;;;;;;;;;;;;;10.44;64.82;99612.94;5079087;28;19929;-53
2022/12/29 04:35:34;;;;;;;;;;;;;;;10.33;65.03;99607.16;5092683;28;20395;-52
2022/12/29 04:37:59;;;;;;;;;;;;;;;10.36;64.80;99609.69;5085357;28;19920;-49
2022/12/29 04:40:24;;;;;;;;;;;;;;;10.35;64.60;99618.50;5086279;28;19927;-52
2022/12/29 04:42:50;;;;;;;;;;;;;;;10.34;64.63;99619.41;5083352;28;20015;-50
2022/12/29 04:45:16;;;;;;;;;;;;;;;10.38;64.62;99609.66;5090583;28;20003;-54
2022/12/29 04:47:41;;;;;;;;;;;;;;;10.34;64.57;99611.53;5090724;28;19920;-49
2022/12/29 04:50:07;;;;;;;;;;;;;;;10.39;64.34;99606.97;5073418;28;19931;-55
2022/12/29 04:52:32;;;;;;;;;;;;;;;10.30;64.62;99604.66;5076707;28;19929;-55
2022/12/29 04:54:58;;;;;;;;;;;;;;;10.39;64.31;99611.38;5073802;28;20372;-51
2022/12/29 04:57:23;;;;;;;;;;;;;;;10.41;64.22;99592.03;5075631;28;20292;-50
2022/12/29 04:59:48;;;;;;;;;;;;;;;10.35;64.22;99595.72;5076515;28;19931;-53
2022/12/29 05:02:15;;;;;;;;;;;;;;;10.36;64.05;99604.44;5073823;28;19921;-54
2022/12/29 05:04:40;;;;;;;;;;;;;;;10.48;63.97;99603.19;5075507;28;20023;-57
2022/12/29 05:07:05;;;;;;;;;;;;;;;10.49;63.97;99610.16;5073675;28;20355;-53
2022/12/29 05:09:31;;;;;;;;;;;;;;;10.42;64.01;99598.16;5084716;28;19931;-54
2022/12/29 05:11:56;;;;;;;;;;;;;;;10.40;64.13;99606.06;5077581;28;19970;-51
2022/12/29 05:14:21;;;;;;;;;;;;;;;10.42;64.13;99609.50;5090114;28;19967;-51
2022/12/29 05:16:47;;;;;;;;;;;;;;;10.44;64.02;99598.94;5088743;28;20016;-53
2022/12/29 05:19:12;;;;;;;;;;;;;;;10.40;63.97;99592.09;5079936;28;19924;-50
2022/12/29 05:21:37;;;;;;;;;;;;;;;10.45;63.85;99575.28;5073599;28;19924;-54
2022/12/29 05:24:03;;;;;;;;;;;;;;;10.46;63.96;99570.88;5087523;28;20008;-52
2022/12/29 05:26:28;;;;;;;;;;;;;;;10.45;63.96;99566.50;5084144;28;19920;-50
2022/12/29 05:28:53;;;;;;;;;;;;;;;10.40;64.11;99568.44;5093702;28;19931;-50
2022/12/29 05:31:18;;;;;;;;;;;;;;;10.46;64.11;99569.09;5095717;28;19924;-51
2022/12/29 05:33:44;;;;;;;;;;;;;;;10.52;64.04;99573.28;5083903;28;19924;-56
2022/12/29 05:36:09;;;;;;;;;;;;;;;10.51;63.98;99575.06;5086763;28;20015;-56
2022/12/29 05:38:35;;;;;;;;;;;;;;;10.49;63.99;99576.00;5089541;28;19943;-54
2022/12/29 05:41:00;;;;;;;;;;;;;;;10.49;64.01;99574.25;5096175;28;19916;-53
2022/12/29 05:43:25;;;;;;;;;;;;;;;10.47;64.06;99575.22;5094821;28;19924;-55
2022/12/29 05:45:51;;;;;;;;;;;;;;;10.50;63.99;99573.34;5078657;28;20291;-51
2022/12/29 05:48:16;;;;;;;;;;;;;;;10.50;63.94;99565.47;5079772;28;19952;-51
2022/12/29 05:50:42;;;;;;;;;;;;;;;10.52;64.00;99565.41;5086569;28;20387;-52
2022/12/29 05:53:07;;;;;;;;;;;;;;;10.44;63.98;99555.16;5076956;28;19924;-50
2022/12/29 05:55:32;;;;;;;;;;;;;;;10.49;63.96;99555.00;5080436;28;19953;-50
2022/12/29 05:57:58;;;;;;;;;;;;;;;10.51;64.00;99556.66;5096501;28;19920;-50
2022/12/29 06:00:23;;;;;;;;;;;;;;;10.48;64.05;99540.16;5096385;28;20255;-51
2022/12/29 06:02:48;;;;;;;;;;;;;;;10.41;64.04;99529.00;5082698;28;19977;-51
2022/12/29 06:05:14;;;;;;;;;;;;;;;10.37;64.22;99532.63;5080936;28;19935;-51
2022/12/29 06:07:39;;;;;;;;;;;;;;;10.35;64.29;99532.69;5079188;28;19924;-51
2022/12/29 06:10:05;;;;;;;;;;;;;;;10.36;64.23;99534.41;5074538;28;19920;-50
2022/12/29 06:12:30;;;;;;;;;;;;;;;10.41;64.17;99522.88;5086559;28;19920;-52
2022/12/29 06:14:55;;;;;;;;;;;;;;;10.41;64.10;99518.47;5079185;28;20004;-51
2022/12/29 06:17:21;;;;;;;;;;;;;;;10.31;64.35;99522.34;5075829;28;19921;-51
2022/12/29 06:19:46;;;;;;;;;;;;;;;10.33;64.23;99521.41;5075548;28;19931;-53
2022/12/29 06:22:12;;;;;;;;;;;;;;;10.31;64.34;99527.59;5075916;28;20045;-51
2022/12/29 06:24:37;;;;;;;;;;;;;;;10.24;64.45;99523.44;5075982;28;19964;-50
2022/12/29 06:27:03;;;;;;;;;;;;;;;10.17;64.68;99519.28;5089119;28;19963;-51
2022/12/29 06:29:28;;;;;;;;;;;;;;;10.07;65.06;99516.97;5084416;28;20280;-53
2022/12/29 06:31:57;;;;;;;;;;;;;;;10.11;65.06;99526.47;5091081;28;19928;-50
2022/12/29 06:34:23;;;;;;;;;;;;;;;10.06;65.26;99520.53;5086018;28;19985;-51
2022/12/29 06:36:48;;;;;;;;;;;;;;;10.23;64.98;99530.47;5090467;28;20375;-52
2022/12/29 06:39:13;;;;;;;;;;;;;;;10.26;64.79;99537.41;5075206;28;19924;-52
2022/12/29 06:41:38;;;;;;;;;;;;;;;10.28;64.75;99530.31;5074766;28;19931;-53
2022/12/29 06:44:04;;;;;;;;;;;;;;;10.38;64.54;99523.88;5075541;28;19920;-54
2022/12/29 06:46:29;;;;;;;;;;;;;;;10.42;64.45;99533.34;5078908;28;19924;-51
2022/12/29 06:48:54;;;;;;;;;;;;;;;10.40;64.38;99522.03;5075228;28;20023;-55
2022/12/29 06:51:20;;;;;;;;;;;;;;;10.38;64.54;99521.25;5086767;28;19920;-52
2022/12/29 06:53:45;;;;;;;;;;;;;;;10.42;64.44;99516.75;5094404;28;19923;-53
2022/12/29 06:56:10;;;;;;;;;;;;;;;10.44;64.46;99523.63;5108802;28;20260;-50
2022/12/29 06:58:36;;;;;;;;;;;;;;;10.41;64.57;99525.50;5116029;28;20283;-51
2022/12/29 07:01:01;;;;;;;;;;;;;;;10.45;64.49;99514.88;5095389;28;19974;-51
2022/12/29 07:03:26;;;;;;;;;;;;;;;10.46;64.56;99520.97;5085768;28;19932;-50
2022/12/29 07:05:52;;;;;;;;;;;;;;;10.51;64.46;99522.53;5095199;28;19928;-51
2022/12/29 07:08:17;;;;;;;;;;;;;;;10.52;64.37;99521.59;5095302;28;19929;-49
2022/12/29 07:10:42;;;;;;;;;;;;;;;10.45;64.69;99538.50;5095247;28;19924;-51
2022/12/29 07:13:08;;;;;;;;;;;;;;;10.41;64.73;99544.75;5095263;28;19920;-54
2022/12/29 07:15:34;;;;;;;;;;;;;;;10.50;64.64;99539.19;5093737;28;19924;-52
2022/12/29 07:17:59;;;;;;;;;;;;;;;10.49;64.69;99537.50;5079410;28;20298;-53
2022/12/29 07:20:25;;;;;;;;;;;;;;;10.52;64.66;99542.63;5074114;28;19922;-53
2022/12/29 07:22:50;;;;;;;;;;;;;;;10.53;64.63;99543.47;5074556;28;19916;-53
2022/12/29 07:25:15;;;;;;;;;;;;;;;10.53;64.58;99533.84;5075484;28;20426;-52
2022/12/29 07:27:41;;;;;;;;;;;;;;;10.56;64.61;99538.13;5077877;28;19931;-54
2022/12/29 07:30:06;;;;;;;;;;;;;;;10.60;64.44;99534.47;5074323;28;19947;-53
2022/12/29 07:32:32;;;;;;;;;;;;;;;10.62;64.48;99530.03;5074448;28;19923;-51
2022/12/29 07:34:57;;;;;;;;;;;;;;;10.57;64.59;99535.44;5073104;28;19916;-53
2022/12/29 07:37:23;;;;;;;;;;;;;;;10.56;64.60;99538.97;5077734;28;19924;-51
2022/12/29 07:39:48;;;;;;;;;;;;;;;10.67;64.39;99543.00;5084855;28;19928;-56
2022/12/29 07:42:13;;;;;;;;;;;;;;;10.70;64.33;99535.88;5079456;28;19925;-51
2022/12/29 07:44:39;;;;;;;;;;;;;;;10.73;64.31;99540.16;5072827;28;20272;-51
2022/12/29 07:47:04;;;;;;;;;;;;;;;10.78;64.33;99536.47;5074546;28;19990;-51
2022/12/29 07:49:29;;;;;;;;;;;;;;;10.85;64.13;99532.69;5074810;28;19921;-49
2022/12/29 07:51:55;;;;;;;;;;;;;;;10.92;64.08;99535.09;5094592;28;19920;-49
2022/12/29 07:54:20;;;;;;;;;;;;;;;10.82;64.17;99539.84;5094416;28;19924;-50
2022/12/29 07:56:45;;;;;;;;;;;;;;;10.90;64.00;99531.69;5094221;28;19971;-49
2022/12/29 07:59:11;;;;;;;;;;;;;;;10.94;63.95;99528.88;5094232;28;19920;-52
2022/12/29 08:01:37;;;;;;;;;;;;;;;10.82;64.28;99521.44;5094511;28;19927;-51
2022/12/29 08:04:02;;;;;;;;;;;;;;;10.89;64.03;99530.81;5094297;28;19916;-50
2022/12/29 08:06:29;;;;;;;;;;;;;;;11.01;63.84;99530.38;5094295;28;19927;-55
2022/12/29 08:08:56;;;;;;;;;;;;;;;11.06;63.76;99528.41;5094095;28;19927;-51
2022/12/29 08:11:21;;;;;;;;;;;;;;;11.15;63.63;99531.63;5089975;28;19924;-53
2022/12/29 08:13:47;;;;;;;;;;;;;;;11.20;63.42;99524.41;5093836;28;20304;-53
2022/12/29 08:16:12;;;;;;;;;;;;;;;11.29;63.36;99532.81;5094364;28;19924;-52
2022/12/29 08:18:37;;;;;;;;;;;;;;;11.24;63.60;99536.53;5094085;28;19921;-54
2022/12/29 08:21:03;;;;;;;;;;;;;;;11.36;63.28;99530.78;5094302;28;19943;-53
2022/12/29 08:23:28;;;;;;;;;;;;;;;11.47;63.16;99520.72;5094253;28;20414;-53
2022/12/29 08:26:01;;;;;;;;;;;;;;;11.58;62.81;99525.56;5093502;28;19920;-52
2022/12/29 08:28:26;;;;;;;;;;;;;;;11.69;62.54;99535.66;5076710;28;19931;-53
2022/12/29 08:30:52;;;;;;;;;;;;;;;11.73;62.30;99538.13;5086157;28;19920;-55
2022/12/29 08:33:17;;;;;;;;;;;;;;;11.80;62.11;99538.72;5093794;28;19923;-52
2022/12/29 08:35:43;;;;;;;;;;;;;;;11.81;62.03;99540.47;5093842;28;19916;-55
2022/12/29 08:38:08;;;;;;;;;;;;;;;11.83;61.87;99536.00;5093899;28;20300;-54
2022/12/29 08:40:33;;;;;;;;;;;;;;;11.91;61.86;99535.72;5093724;28;19916;-55
2022/12/29 08:42:59;;;;;;;;;;;;;;;11.98;61.48;99538.03;5093716;28;20268;-53
2022/12/29 08:45:24;;;;;;;;;;;;;;;11.93;61.44;99545.28;5093940;28;19955;-54
2022/12/29 08:47:49;;;;;;;;;;;;;;;12.01;61.32;99537.06;5093622;28;20402;-55
2022/12/29 08:50:14;;;;;;;;;;;;;;;12.10;61.17;99535.81;5093857;28;19927;-54
2022/12/29 08:52:40;;;;;;;;;;;;;;;12.15;60.83;99525.94;5093929;28;19946;-52
2022/12/29 08:55:05;;;;;;;;;;;;;;;12.22;60.98;99527.41;5093807;28;19928;-53
2022/12/29 08:57:30;;;;;;;;;;;;;;;12.26;60.69;99529.84;5093606;28;19924;-52
2022/12/29 08:59:56;;;;;;;;;;;;;;;12.41;60.47;99524.84;5097682;28;19928;-55
2022/12/29 09:02:21;;;;;;;;;;;;;;;12.41;60.13;99528.34;5097677;28;19920;-55
2022/12/29 09:04:46;;;;;;;;;;;;;;;12.46;60.06;99523.72;5097875;28;19920;-53
2022/12/29 09:07:12;;;;;;;;;;;;;;;12.51;59.89;99528.78;5096447;28;19920;-52
2022/12/29 09:09:37;;;;;;;;;;;;;;;12.53;59.90;99521.69;5097522;28;20221;-54
2022/12/29 09:12:02;;;;;;;;;;;;;;;12.45;60.17;99522.03;5097671;28;19928;-53
2022/12/29 09:14:27;;;;;;;;;;;;;;;12.52;60.01;99523.44;5097722;28;20008;-54
2022/12/29 09:19:37;;;;;;;;;;;;;;;12.56;59.72;99519.75;5097694;28;19931;-54
2022/12/29 09:22:02;;;;;;;;;;;;;;;12.62;59.67;99510.75;5097355;28;19920;-51
2022/12/29 09:24:28;;;;;;;;;;;;;;;12.63;59.63;99527.41;5096123;28;20347;-56
2022/12/29 09:26:53;;;;;;;;;;;;;;;12.65;59.57;99525.59;5097056;28;20379;-51
2022/12/29 09:29:18;;;;;;;;;;;;;;;12.64;59.67;99523.84;5096247;28;19920;-50
2022/12/29 09:31:44;;;;;;;;;;;;;;;12.71;59.67;99515.59;5097235;28;20290;-50
2022/12/29 09:34:09;;;;;;;;;;;;;;;12.67;59.62;99523.72;5097402;28;19927;-52
2022/12/29 09:36:34;;;;;;;;;;;;;;;12.86;59.50;99505.31;5097035;28;20057;-51
2022/12/29 09:39:00;;;;;;;;;;;;;;;12.64;59.64;99492.22;5096835;28;19939;-52
2022/12/29 09:41:45;;;;;;;;;;;;;;;12.81;59.54;99490.56;5096862;28;19920;-51
2022/12/29 09:44:16;;;;;;;;;;;;;;;12.91;59.42;99483.09;5096668;28;19922;-53
2022/12/29 09:46:44;;;;;;;;;;;;;;;12.92;59.38;99486.56;5096847;28;19969;-55
2022/12/29 09:49:28;;;;;;;;;;;;;;;13.04;59.10;99483.38;5096665;28;20007;-52
2022/12/29 09:51:56;;;;;;;;;;;;;;;13.10;58.82;99484.91;5096501;28;19920;-55
2022/12/29 09:54:32;;;;;;;;;;;;;;;13.24;58.62;99472.78;5096601;28;20023;-54
2022/12/29 09:56:58;;;;;;;;;;;;;;;13.32;58.55;99482.97;5096640;28;19920;-53
2022/12/29 09:59:43;;;;;;;;;;;;;;;13.36;58.42;99471.34;5096410;28;19930;-51
2022/12/29 10:02:15;;;;;;;;;;;;;;;13.39;58.29;99476.50;5096148;28;20007;-55
2022/12/29 10:04:41;;;;;;;;;;;;;;;13.31;58.45;99476.00;5096467;28;19955;-55
2022/12/29 10:07:19;;;;;;;;;;;;;;;13.33;58.42;99490.00;5096609;28;19920;-55
2022/12/29 10:10:13;;;;;;;;;;;;;;;13.20;58.57;99491.44;5094891;28;20018;-53
2022/12/29 10:12:38;;;;;;;;;;;;;;;13.10;58.75;99487.53;5093280;28;20331;-54
2022/12/29 10:15:10;;;;;;;;;;;;;;;13.16;59.03;99479.31;5096065;28;20005;-55
2022/12/29 10:17:38;;;;;;;;;;;;;;;12.78;59.45;99488.06;5096207;28;19923;-54
2022/12/29 10:20:06;;;;;;;;;;;;;;;12.74;59.89;99477.72;5095977;28;19922;-56
2022/12/29 10:22:34;;;;;;;;;;;;;;;12.91;59.76;99483.09;5095952;28;20369;-55
2022/12/29 10:25:02;;;;;;;;;;;;;;;12.88;59.57;99496.41;5096014;28;19916;-53
2022/12/29 10:27:30;;;;;;;;;;;;;;;12.79;60.06;99481.84;5094922;28;19916;-52
2022/12/29 10:29:57;;;;;;;;;;;;;;;12.77;60.07;99473.19;5096165;28;19942;-55
2022/12/29 10:32:26;;;;;;;;;;;;;;;12.86;59.91;99461.34;5096004;28;19942;-54
2022/12/29 10:34:54;;;;;;;;;;;;;;;13.03;59.66;99442.97;5095915;28;19916;-54
2022/12/29 10:37:41;;;;;;;;;;;;;;;13.04;59.11;99436.75;5095771;28;19916;-54
2022/12/29 10:40:19;;;;;;;;;;;;;;;13.16;59.09;99445.88;5096142;28;19924;-53
2022/12/29 10:42:47;;;;;;;;;;;;;;;13.07;59.06;99449.81;5096076;28;20275;-55
2022/12/29 10:45:14;;;;;;;;;;;;;;;12.88;59.51;99443.66;5095811;28;19916;-55
2022/12/29 10:47:47;;;;;;;;;;;;;;;12.78;59.76;99434.50;5095773;28;20394;-56
2022/12/29 10:50:13;;;;;;;;;;;;;;;12.76;60.02;99444.22;5095635;28;19920;-56
2022/12/29 10:52:39;;;;;;;;;;;;;;;12.83;59.95;99443.03;5095721;28;19923;-54
2022/12/29 10:55:22;;;;;;;;;;;;;;;12.79;60.18;99444.09;5095686;28;19931;-52
2022/12/29 10:57:49;;;;;;;;;;;;;;;12.84;59.75;99442.09;5095480;28;19916;-55
2022/12/29 11:00:16;;;;;;;;;;;;;;;12.83;59.92;99435.13;5095536;28;19999;-53
2022/12/29 11:02:44;;;;;;;;;;;;;;;12.92;59.98;99432.06;5095329;28;19923;-56
2022/12/29 11:05:12;;;;;;;;;;;;;;;13.09;59.72;99425.16;5095796;28;19924;-55
2022/12/29 11:07:38;;;;;;;;;;;;;;;13.23;59.33;99423.59;5095276;28;19999;-51
2022/12/29 11:10:20;;;;;;;;;;;;;;;13.22;59.36;99423.66;5094047;28;19975;-55
2022/12/29 11:12:57;;;;;;;;;;;;;;;13.23;59.30;99428.03;5095213;28;20290;-57
2022/12/29 11:15:22;;;;;;;;;;;;;;;13.30;59.32;99429.44;5095501;28;19916;-54
2022/12/29 11:17:52;;;;;;;;;;;;;;;13.40;59.04;99432.50;5093984;28;19920;-53
2022/12/29 11:20:26;;;;;;;;;;;;;;;13.41;59.14;99426.31;5093790;28;20374;-54
2022/12/29 11:22:52;;;;;;;;;;;;;;;13.51;59.12;99431.03;5095100;28;19916;-51
2022/12/29 11:25:17;;;;;;;;;;;;;;;13.55;59.28;99435.25;5095031;28;20054;-54
2022/12/29 11:27:54;;;;;;;;;;;;;;;13.47;59.42;99428.63;5095042;28;19931;-53
2022/12/29 11:30:28;;;;;;;;;;;;;;;13.29;59.80;99427.75;5095209;28;19916;-52
2022/12/29 11:32:54;;;;;;;;;;;;;;;13.40;59.70;99433.34;5094558;28;20008;-52
2022/12/29 11:35:29;;;;;;;;;;;;;;;13.34;59.67;99436.28;5093747;28;20283;-58
2022/12/29 11:37:57;;;;;;;;;;;;;;;13.20;59.62;99428.97;5078177;28;19920;-55
2022/12/29 11:40:23;;;;;;;;;;;;;;;13.25;59.68;99437.59;5074583;28;19963;-55
2022/12/29 11:42:50;;;;;;;;;;;;;;;13.28;59.71;99432.19;5089268;28;20409;-55
2022/12/29 11:45:16;;;;;;;;;;;;;;;13.29;59.71;99433.88;5094585;28;20330;-56
2022/12/29 11:47:46;;;;;;;;;;;;;;;13.26;59.67;99433.16;5094552;28;19942;-55
2022/12/29 11:50:17;;;;;;;;;;;;;;;13.33;59.59;99429.31;5083088;28;19916;-56
2022/12/29 11:52:43;;;;;;;;;;;;;;;13.48;59.18;99422.41;5073089;28;19916;-54
2022/12/29 11:55:17;;;;;;;;;;;;;;;13.47;59.40;99415.44;5087761;28;19970;-58
2022/12/29 11:57:44;;;;;;;;;;;;;;;13.54;59.35;99412.44;5093587;28;21561;-56
2022/12/29 12:00:30;;;;;;;;;;;;;;;13.52;59.43;99419.56;5094579;28;19950;-54
2022/12/29 12:03:16;;;;;;;;;;;;;;;13.54;59.17;99412.44;5094181;28;19952;-54
2022/12/29 12:05:42;;;;;;;;;;;;;;;13.53;59.19;99405.44;5094530;28;19916;-55
2022/12/29 12:08:17;;;;;;;;;;;;;;;13.52;59.31;99403.75;5094241;28;19916;-55
2022/12/29 12:10:44;;;;;;;;;;;;;;;13.52;59.21;99393.19;5094173;28;20380;-53
2022/12/29 12:13:33;;;;;;;;;;;;;;;13.41;59.52;99394.66;5092631;28;19999;-55
2022/12/29 12:16:09;;;;;;;;;;;;;;;13.35;59.78;99395.78;5093403;28;20389;-55
2022/12/29 12:18:40;;;;;;;;;;;;;;;13.45;59.75;99401.47;5092697;28;19927;-55
2022/12/29 12:21:24;;;;;;;;;;;;;;;13.18;60.28;99408.91;5093054;28;19916;-56
2022/12/29 12:23:58;;;;;;;;;;;;;;;13.22;60.40;99406.03;5094037;28;19920;-55
2022/12/29 12:26:42;;;;;;;;;;;;;;;13.14;60.62;99409.97;5094010;28;20363;-55
2022/12/29 12:29:14;;;;;;;;;;;;;;;13.14;60.74;99402.91;5094168;28;20394;-54
2022/12/29 12:31:48;;;;;;;;;;;;;;;13.10;60.83;99401.34;5093863;28;20014;-56
2022/12/29 12:34:19;;;;;;;;;;;;;;;13.15;60.95;99393.22;5092982;28;19919;-54
2022/12/29 12:37:11;;;;;;;;;;;;;;;13.20;60.79;99402.59;5094149;28;20391;-54
2022/12/29 12:39:45;;;;;;;;;;;;;;;13.17;60.87;99407.19;5093820;28;20311;-53
2022/12/29 12:42:16;;;;;;;;;;;;;;;13.12;61.07;99403.91;5094100;28;19916;-52
2022/12/29 12:45:00;;;;;;;;;;;;;;;13.14;61.04;99407.34;5093757;28;19916;-55
2022/12/29 12:47:39;;;;;;;;;;;;;;;13.03;61.35;99402.56;5093783;28;19916;-54
2022/12/29 12:50:05;;;;;;;;;;;;;;;13.16;61.04;99397.56;5093942;28;19916;-55
2022/12/29 12:52:30;;;;;;;;;;;;;;;12.93;61.66;99401.31;5093917;28;19916;-55
2022/12/29 12:54:55;;;;;;;;;;;;;;;12.92;61.75;99392.50;5093477;28;19923;-55
2022/12/29 12:57:32;;;;;;;;;;;;;;;13.00;61.61;99382.44;5093865;28;20030;-54
2022/12/29 13:00:05;;;;;;;;;;;;;;;12.90;61.97;99386.47;5093732;28;20402;-56
2022/12/29 13:02:49;;;;;;;;;;;;;;;12.97;61.63;99393.16;5092398;28;19916;-56
2022/12/29 13:05:24;;;;;;;;;;;;;;;12.84;62.10;99386.75;5093461;28;19916;-55
2022/12/29 13:07:58;;;;;;;;;;;;;;;12.93;61.88;99390.75;5093733;28;19920;-55
2022/12/29 13:10:40;;;;;;;;;;;;;;;12.93;61.94;99391.59;5093905;28;19916;-51
2022/12/29 13:13:17;;;;;;;;;;;;;;;12.99;61.67;99401.00;5093710;28;20363;-51
2022/12/29 13:15:45;;;;;;;;;;;;;;;12.95;61.80;99402.06;5093578;28;20034;-52
2022/12/29 13:18:29;;;;;;;;;;;;;;;12.97;61.72;99400.22;5093422;28;20069;-55
2022/12/29 13:21:02;;;;;;;;;;;;;;;12.98;61.70;99402.78;5093471;28;19952;-52
2022/12/29 13:23:31;;;;;;;;;;;;;;;12.78;62.10;99400.22;5093349;28;19920;-53
2022/12/29 13:25:56;;;;;;;;;;;;;;;12.83;61.97;99403.50;5093470;28;20264;-55
2022/12/29 13:28:40;;;;;;;;;;;;;;;12.81;62.05;99405.34;5093235;28;19923;-55
2022/12/29 13:31:30;;;;;;;;;;;;;;;12.79;62.06;99410.69;5093633;28;19939;-55
2022/12/29 13:34:10;;;;;;;;;;;;;;;12.67;62.39;99413.03;5093457;28;19916;-56